Time;durP1;ratioP1;P1;durP2;ratioP2;P2;SDS_P1;SDS_P2;PMS_P1;PMS_P2;Temp;Humidity;BMP_temperature;BMP_pressure;BME280_temperature;BME280_humidity;BME280_pressure;Samples;Min_cycle;Max_cycle;Signal;HPM_P1;HPM_P2
2021/01/23 00:00:04;;;;;;;13.53;7.10;;;5.80;99.90;;;;;;4959152;29;20468;-53
2021/01/23 00:02:31;;;;;;;14.03;7.13;;;5.70;99.90;;;;;;4959268;29;20452;-51
2021/01/23 00:04:57;;;;;;;21.00;8.07;;;5.80;99.90;;;;;;4958997;29;20539;-55
2021/01/23 00:07:24;;;;;;;13.50;6.90;;;5.70;99.90;;;;;;4959647;29;20489;-54
2021/01/23 00:09:50;;;;;;;9.83;6.10;;;5.80;99.90;;;;;;4967489;29;20756;-55
2021/01/23 00:12:17;;;;;;;12.67;5.60;;;5.80;99.90;;;;;;4968596;29;20503;-54
2021/01/23 00:14:43;;;;;;;7.53;4.70;;;5.90;99.90;;;;;;4968353;29;20811;-54
2021/01/23 00:17:11;;;;;;;10.50;4.63;;;5.80;99.90;;;;;;4973872;29;20474;-51
2021/01/23 00:19:59;;;;;;;8.40;4.70;;;5.80;99.90;;;;;;4977470;29;20455;-53
2021/01/23 00:22:25;;;;;;;8.60;4.80;;;5.80;99.90;;;;;;4977228;29;20495;-54
2021/01/23 00:24:51;;;;;;;5.80;4.27;;;5.80;99.90;;;;;;4977033;29;20443;-50
2021/01/23 00:27:18;;;;;;;6.77;4.80;;;5.80;99.90;;;;;;4977626;29;20498;-52
2021/01/23 00:29:45;;;;;;;9.00;5.30;;;5.80;99.90;;;;;;4977241;29;20446;-50
2021/01/23 00:32:12;;;;;;;9.80;6.43;;;5.70;99.90;;;;;;4976938;29;20525;-50
2021/01/23 00:34:38;;;;;;;9.03;4.70;;;5.70;99.90;;;;;;4977348;29;20460;-54
2021/01/23 00:37:05;;;;;;;8.43;5.00;;;5.70;99.90;;;;;;4969294;29;20440;-54
2021/01/23 00:39:31;;;;;;;10.60;5.30;;;5.70;99.90;;;;;;4968497;29;20443;-51
2021/01/23 00:41:58;;;;;;;13.50;5.90;;;5.70;99.90;;;;;;4967590;29;20444;-52
2021/01/23 00:44:24;;;;;;;11.00;5.93;;;5.70;99.90;;;;;;4967904;29;20458;-53
2021/01/23 00:46:55;;;;;;;7.53;5.57;;;5.60;99.90;;;;;;4968602;29;20508;-53
2021/01/23 00:49:22;;;;;;;11.70;6.80;;;5.70;99.90;;;;;;4967921;29;20439;-48
2021/01/23 00:51:49;;;;;;;8.13;5.27;;;5.70;99.90;;;;;;4968466;29;20460;-52
2021/01/23 00:54:15;;;;;;;11.20;6.20;;;5.80;99.90;;;;;;4967710;29;20523;-53
2021/01/23 00:56:41;;;;;;;11.60;5.80;;;5.80;99.90;;;;;;4952717;29;20464;-48
2021/01/23 00:59:08;;;;;;;9.03;6.37;;;5.90;99.90;;;;;;4960587;29;20476;-49
2021/01/23 01:01:34;;;;;;;6.50;5.30;;;5.90;99.90;;;;;;4961642;29;20472;-50
2021/01/23 01:04:01;;;;;;;9.03;5.10;;;6.00;99.90;;;;;;4959061;29;20924;-50
2021/01/23 01:06:28;;;;;;;9.10;6.70;;;6.00;99.90;;;;;;4951587;29;20448;-49
2021/01/23 01:08:54;;;;;;;5.27;4.77;;;6.10;99.90;;;;;;4950655;29;20445;-50
2021/01/23 01:11:21;;;;;;;8.50;6.03;;;6.10;99.90;;;;;;4951034;29;20911;-53
2021/01/23 01:13:47;;;;;;;9.10;5.93;;;6.10;99.90;;;;;;4950726;29;20449;-51
2021/01/23 01:16:14;;;;;;;9.47;6.10;;;6.10;99.90;;;;;;4949953;29;20506;-50
2021/01/23 01:18:40;;;;;;;8.03;4.87;;;6.20;99.90;;;;;;4950561;29;20536;-51
2021/01/23 01:21:07;;;;;;;9.43;5.80;;;6.30;99.90;;;;;;4949589;29;20471;-54
2021/01/23 01:23:34;;;;;;;7.80;5.73;;;6.20;99.90;;;;;;4950803;29;20507;-51
2021/01/23 01:26:01;;;;;;;12.80;5.50;;;6.30;99.90;;;;;;4950302;29;20852;-49
2021/01/23 01:28:27;;;;;;;13.73;6.13;;;6.30;99.90;;;;;;4950007;29;20445;-51
2021/01/23 01:30:54;;;;;;;9.60;5.67;;;6.30;99.90;;;;;;4949838;29;20568;-51
2021/01/23 01:33:20;;;;;;;11.83;7.20;;;6.30;99.90;;;;;;4943502;29;20491;-50
2021/01/23 01:35:47;;;;;;;10.87;5.13;;;6.30;99.90;;;;;;4943313;29;20946;-53
2021/01/23 01:38:13;;;;;;;10.13;6.03;;;6.30;99.90;;;;;;4946100;29;20516;-55
2021/01/23 01:40:40;;;;;;;8.93;5.67;;;6.30;99.90;;;;;;4943410;29;20444;-53
2021/01/23 01:43:07;;;;;;;7.40;5.83;;;6.40;99.90;;;;;;4942668;29;20539;-52
2021/01/23 01:45:33;;;;;;;10.27;6.50;;;6.40;99.90;;;;;;4943118;29;20464;-51
2021/01/23 01:48:00;;;;;;;11.03;6.87;;;6.40;99.90;;;;;;4942691;29;20449;-51
2021/01/23 01:50:27;;;;;;;17.03;6.87;;;6.40;99.90;;;;;;4942741;29;20496;-53
2021/01/23 01:52:53;;;;;;;9.40;6.20;;;6.40;99.90;;;;;;4942509;29;20886;-48
2021/01/23 01:55:26;;;;;;;9.97;6.83;;;6.40;99.90;;;;;;4950729;28;20590;-55
2021/01/23 01:57:54;;;;;;;9.40;5.77;;;6.40;99.90;;;;;;4961789;29;20603;-53
2021/01/23 02:00:21;;;;;;;11.50;6.10;;;6.40;99.90;;;;;;4961289;29;20452;-53
2021/01/23 02:03:03;;;;;;;10.63;6.07;;;6.40;99.90;;;;;;4962833;29;20451;-52
2021/01/23 02:05:37;;;;;;;10.17;5.80;;;6.50;99.90;;;;;;4962232;29;20953;-53
2021/01/23 02:08:17;;;;;;;14.90;6.10;;;6.50;99.90;;;;;;4961768;28;20828;-51
2021/01/23 02:10:48;;;;;;;14.40;6.07;;;6.50;99.90;;;;;;4962295;29;20541;-53
2021/01/23 02:13:28;;;;;;;11.23;6.07;;;6.50;99.90;;;;;;4961730;29;20448;-47
2021/01/23 02:16:01;;;;;;;7.60;5.83;;;6.50;99.90;;;;;;4961447;29;20792;-47
2021/01/23 02:18:34;;;;;;;8.50;5.40;;;6.50;99.90;;;;;;4961645;29;20582;-46
2021/01/23 02:21:35;;;;;;;10.17;6.00;;;6.40;99.90;;;;;;4961368;29;20530;-49
2021/01/23 02:24:04;;;;;;;8.07;5.87;;;6.40;99.90;;;;;;4958044;29;20498;-52
2021/01/23 02:26:42;;;;;;;10.70;6.63;;;6.30;99.90;;;;;;4961975;29;20544;-51
2021/01/23 02:29:14;;;;;;;8.47;5.07;;;6.20;99.90;;;;;;4971131;28;20511;-52
2021/01/23 02:31:43;;;;;;;15.27;6.73;;;6.10;99.90;;;;;;4976674;28;20451;-52
2021/01/23 02:34:14;;;;;;;9.40;5.37;;;6.10;99.90;;;;;;4967977;28;20492;-51
2021/01/23 02:36:42;;;;;;;11.20;6.40;;;6.00;99.90;;;;;;4974897;29;20432;-51
2021/01/23 02:39:10;;;;;;;6.17;5.47;;;6.00;99.90;;;;;;4958469;29;20578;-53
2021/01/23 02:41:37;;;;;;;12.03;7.00;;;6.00;99.90;;;;;;4957955;29;20549;-54
2021/01/23 02:44:03;;;;;;;11.00;6.63;;;5.80;99.90;;;;;;4969516;29;20468;-52
2021/01/23 02:46:30;;;;;;;8.93;5.57;;;5.80;99.90;;;;;;4957032;29;20560;-55
2021/01/23 02:48:57;;;;;;;12.40;7.40;;;5.80;99.90;;;;;;4964762;29;20463;-52
2021/01/23 02:51:31;;;;;;;10.50;7.03;;;5.80;99.90;;;;;;4968524;28;20475;-54
2021/01/23 02:54:04;;;;;;;8.60;6.13;;;5.70;99.90;;;;;;4958446;29;20435;-52
2021/01/23 02:56:33;;;;;;;11.10;6.77;;;5.70;99.90;;;;;;4961234;29;20531;-53
2021/01/23 02:59:03;;;;;;;10.00;6.90;;;5.70;99.90;;;;;;4961819;29;20507;-51
2021/01/23 03:01:35;;;;;;;9.40;6.43;;;5.70;99.90;;;;;;4970155;29;20491;-52
2021/01/23 03:04:03;;;;;;;12.17;7.00;;;5.60;99.90;;;;;;4968867;29;20428;-50
2021/01/23 03:06:30;;;;;;;11.67;7.10;;;5.60;99.90;;;;;;4964126;29;20470;-49
2021/01/23 03:08:57;;;;;;;9.40;7.03;;;5.60;99.90;;;;;;4962068;29;20774;-51
2021/01/23 03:11:23;;;;;;;11.07;7.23;;;5.60;99.90;;;;;;4961617;29;20487;-48
2021/01/23 03:13:50;;;;;;;14.63;7.00;;;5.60;99.90;;;;;;4961693;28;20521;-48
2021/01/23 03:16:16;;;;;;;9.47;6.33;;;5.50;99.90;;;;;;4962294;29;20494;-49
2021/01/23 03:18:42;;;;;;;12.80;5.70;;;5.50;99.90;;;;;;4961267;29;20849;-47
2021/01/23 03:21:10;;;;;;;9.40;5.90;;;5.50;99.90;;;;;;4961401;28;20806;-48
2021/01/23 03:23:36;;;;;;;7.13;5.13;;;5.50;99.90;;;;;;4962387;29;20458;-49
2021/01/23 03:26:03;;;;;;;9.77;5.60;;;5.50;99.90;;;;;;4965116;29;20475;-49
2021/01/23 03:28:29;;;;;;;9.30;6.43;;;5.50;99.90;;;;;;4961233;29;20487;-50
2021/01/23 03:30:55;;;;;;;9.00;5.37;;;5.50;99.90;;;;;;4961526;29;20448;-47
2021/01/23 03:33:22;;;;;;;8.23;5.80;;;5.50;99.90;;;;;;4959817;29;20546;-54
2021/01/23 03:35:48;;;;;;;10.07;5.90;;;5.50;99.90;;;;;;4960367;29;20479;-46
2021/01/23 03:38:15;;;;;;;8.77;6.47;;;5.40;99.90;;;;;;4960921;29;20519;-53
2021/01/23 03:40:42;;;;;;;8.33;5.73;;;5.50;99.90;;;;;;4960059;29;20523;-51
2021/01/23 03:43:08;;;;;;;11.33;6.70;;;5.50;99.90;;;;;;4960986;29;20891;-53
2021/01/23 03:45:34;;;;;;;14.70;6.87;;;5.50;99.90;;;;;;4960144;29;20503;-51
2021/01/23 03:48:01;;;;;;;10.30;6.10;;;5.50;99.90;;;;;;4960348;29;20532;-53
2021/01/23 03:50:28;;;;;;;15.33;7.07;;;5.60;99.90;;;;;;4960698;29;20498;-53
2021/01/23 03:52:55;;;;;;;10.17;6.60;;;5.60;99.90;;;;;;4961200;29;20464;-52
2021/01/23 03:55:22;;;;;;;13.50;7.10;;;5.60;99.90;;;;;;4960418;29;20534;-50
2021/01/23 03:57:49;;;;;;;10.67;7.07;;;5.70;99.90;;;;;;4960720;29;20579;-52
2021/01/23 04:00:16;;;;;;;10.53;6.50;;;5.70;99.90;;;;;;4960839;29;20964;-46
2021/01/23 04:02:42;;;;;;;14.70;6.93;;;5.60;99.90;;;;;;4960389;29;20543;-48
2021/01/23 04:05:10;;;;;;;9.97;6.47;;;5.60;99.90;;;;;;4960938;29;20463;-50
2021/01/23 04:07:37;;;;;;;9.33;6.13;;;5.60;99.90;;;;;;4960870;29;20525;-52
2021/01/23 04:10:05;;;;;;;10.57;6.57;;;5.50;99.90;;;;;;4960717;29;20558;-46
2021/01/23 04:12:33;;;;;;;10.13;5.83;;;5.60;99.90;;;;;;4960314;29;20519;-49
2021/01/23 04:14:59;;;;;;;12.33;6.50;;;5.60;99.90;;;;;;4960157;29;20495;-51
2021/01/23 04:17:25;;;;;;;8.23;6.23;;;5.50;99.90;;;;;;4960584;29;20539;-51
2021/01/23 04:19:52;;;;;;;9.57;6.93;;;5.50;99.90;;;;;;4960221;29;20526;-52
2021/01/23 04:22:18;;;;;;;9.60;6.40;;;5.60;99.90;;;;;;4960553;29;20994;-52
2021/01/23 04:24:45;;;;;;;9.53;6.27;;;5.50;99.90;;;;;;4960898;29;20982;-51
2021/01/23 04:27:11;;;;;;;14.57;7.27;;;5.50;99.90;;;;;;4961025;29;20941;-53
2021/01/23 04:29:38;;;;;;;15.20;7.60;;;5.40;99.90;;;;;;4960179;29;20490;-52
2021/01/23 04:32:05;;;;;;;9.43;6.17;;;5.40;99.90;;;;;;4964254;28;20547;-52
2021/01/23 04:34:32;;;;;;;10.53;5.80;;;5.40;99.90;;;;;;4966483;29;20542;-54
2021/01/23 04:36:58;;;;;;;11.50;6.83;;;5.50;99.90;;;;;;4966920;28;20507;-49
2021/01/23 04:39:24;;;;;;;14.17;7.83;;;5.50;99.90;;;;;;4966107;29;20487;-52
2021/01/23 04:41:51;;;;;;;9.73;6.57;;;5.50;99.90;;;;;;4966466;28;20551;-46
2021/01/23 04:44:17;;;;;;;10.70;7.13;;;5.50;99.90;;;;;;4965877;29;20495;-53
2021/01/23 04:46:47;;;;;;;14.73;7.33;;;5.50;99.90;;;;;;4966502;28;20478;-48
2021/01/23 04:49:13;;;;;;;12.03;7.33;;;5.50;99.90;;;;;;4966307;28;20535;-52
2021/01/23 04:51:40;;;;;;;11.03;7.60;;;5.60;99.90;;;;;;4966583;28;20549;-55
2021/01/23 04:54:06;;;;;;;13.50;6.63;;;5.50;99.90;;;;;;4966455;29;20447;-53
2021/01/23 04:56:33;;;;;;;10.90;6.97;;;5.50;99.90;;;;;;4973125;29;20502;-54
2021/01/23 04:58:59;;;;;;;11.10;7.10;;;5.60;99.90;;;;;;4975401;29;20573;-53
2021/01/23 05:01:25;;;;;;;10.37;6.10;;;5.50;99.90;;;;;;4975498;29;20819;-51
2021/01/23 05:03:57;;;;;;;11.67;6.90;;;5.40;99.90;;;;;;4968715;28;20518;-50
2021/01/23 05:06:24;;;;;;;10.80;6.10;;;5.40;99.90;;;;;;4966809;28;20486;-51
2021/01/23 05:08:51;;;;;;;12.40;6.90;;;5.50;99.90;;;;;;4966964;29;20498;-51
2021/01/23 05:11:17;;;;;;;12.17;6.87;;;5.50;99.90;;;;;;4966794;28;20463;-47
2021/01/23 05:14:05;;;;;;;15.63;7.33;;;5.40;99.90;;;;;;4965768;28;20553;-50
2021/01/23 05:16:31;;;;;;;11.77;6.97;;;5.50;99.90;;;;;;4965693;28;20530;-55
2021/01/23 05:19:01;;;;;;;10.47;6.27;;;5.50;99.90;;;;;;4967046;28;20570;-53
2021/01/23 05:21:28;;;;;;;12.93;6.53;;;5.50;99.90;;;;;;4966598;28;20502;-50
2021/01/23 05:24:09;;;;;;;10.23;6.00;;;5.50;99.90;;;;;;4966544;28;20530;-52
2021/01/23 05:26:36;;;;;;;13.07;6.80;;;5.50;99.90;;;;;;4966658;29;20463;-52
2021/01/23 05:29:13;;;;;;;12.33;7.70;;;5.50;99.90;;;;;;4966415;29;20839;-48
2021/01/23 05:31:40;;;;;;;15.90;8.30;;;5.50;99.90;;;;;;4966977;29;20510;-51
2021/01/23 05:34:27;;;;;;;12.80;6.33;;;5.50;99.90;;;;;;4966429;28;20526;-51
2021/01/23 05:36:53;;;;;;;11.50;7.70;;;5.50;99.90;;;;;;4966833;28;20490;-52
2021/01/23 05:39:20;;;;;;;15.53;9.27;;;5.50;99.90;;;;;;4966172;29;20486;-51
2021/01/23 05:42:04;;;;;;;14.30;7.57;;;5.50;99.90;;;;;;4965926;28;20478;-52
2021/01/23 05:44:30;;;;;;;15.73;7.70;;;5.50;99.90;;;;;;4962350;28;20526;-52
2021/01/23 05:46:57;;;;;;;16.27;8.10;;;5.50;99.90;;;;;;4963127;29;20444;-52
2021/01/23 05:49:23;;;;;;;13.43;9.80;;;5.60;99.90;;;;;;4963798;29;20756;-55
2021/01/23 05:51:51;;;;;;;17.43;9.67;;;5.60;99.90;;;;;;4963372;29;20507;-51
2021/01/23 05:54:18;;;;;;;11.37;8.23;;;5.60;99.90;;;;;;4962614;28;20456;-48
2021/01/23 05:56:47;;;;;;;22.90;11.80;;;5.70;99.90;;;;;;4962872;29;20486;-53
2021/01/23 05:59:13;;;;;;;17.60;12.00;;;5.70;99.90;;;;;;4963313;29;20646;-50
2021/01/23 06:01:40;;;;;;;18.73;12.37;;;5.60;99.90;;;;;;4963251;29;20512;-49
2021/01/23 06:04:14;;;;;;;9.97;8.03;;;5.70;99.90;;;;;;4962248;29;21013;-55
2021/01/23 06:06:47;;;;;;;15.17;7.97;;;5.70;99.90;;;;;;4962494;29;20550;-51
2021/01/23 06:09:33;;;;;;;12.90;7.03;;;5.60;99.90;;;;;;4962704;29;20957;-50
2021/01/23 06:12:00;;;;;;;11.90;7.10;;;5.60;99.90;;;;;;4963067;29;20462;-53
2021/01/23 06:14:36;;;;;;;14.27;7.20;;;5.60;99.90;;;;;;4963720;29;20466;-52
2021/01/23 06:17:02;;;;;;;9.30;5.87;;;5.50;99.90;;;;;;4963479;29;20509;-50
2021/01/23 06:19:42;;;;;;;11.73;7.10;;;5.50;99.90;;;;;;4962644;29;20577;-50
2021/01/23 06:22:13;;;;;;;12.57;6.87;;;5.50;99.90;;;;;;4963195;29;20436;-49
2021/01/23 06:24:54;;;;;;;14.20;8.20;;;5.50;99.90;;;;;;4962822;29;20491;-48
2021/01/23 06:27:21;;;;;;;12.57;6.63;;;5.60;99.90;;;;;;4962333;29;20502;-48
2021/01/23 06:29:48;;;;;;;10.30;6.47;;;5.50;99.90;;;;;;4963051;29;20506;-55
2021/01/23 06:32:30;;;;;;;12.40;5.93;;;5.60;99.90;;;;;;4962381;29;20938;-53
2021/01/23 06:34:58;;;;;;;11.77;6.70;;;5.60;99.90;;;;;;4963293;29;20919;-53
2021/01/23 06:37:29;;;;;;;9.20;6.30;;;5.50;99.90;;;;;;4961994;29;20467;-53
2021/01/23 06:40:05;;;;;;;13.03;8.60;;;5.50;99.90;;;;;;4962141;29;21025;-53
2021/01/23 06:42:32;;;;;;;12.40;6.97;;;5.60;99.90;;;;;;4961858;29;20519;-54
2021/01/23 06:45:17;;;;;;;11.57;6.60;;;5.60;99.90;;;;;;4961562;29;20977;-53
2021/01/23 06:47:45;;;;;;;13.80;6.73;;;5.60;99.90;;;;;;4961476;29;20515;-53
2021/01/23 06:50:12;;;;;;;11.67;8.67;;;5.60;99.90;;;;;;4961096;29;20542;-54
2021/01/23 06:52:46;;;;;;;11.63;7.63;;;5.60;99.90;;;;;;4961910;29;20451;-55
2021/01/23 06:55:13;;;;;;;11.60;5.80;;;5.70;99.90;;;;;;4960860;28;20554;-49
2021/01/23 06:57:45;;;;;;;15.53;8.40;;;5.70;99.90;;;;;;4962225;29;20515;-54
2021/01/23 07:00:13;;;;;;;13.30;7.23;;;5.70;99.90;;;;;;4962437;29;20480;-49
2021/01/23 07:02:40;;;;;;;11.17;6.20;;;5.70;99.90;;;;;;4962489;29;20455;-49
2021/01/23 07:05:09;;;;;;;10.70;6.20;;;5.70;99.90;;;;;;4962179;29;20551;-51
2021/01/23 07:07:39;;;;;;;13.43;7.00;;;5.70;99.90;;;;;;4962014;29;20481;-48
2021/01/23 07:10:16;;;;;;;12.20;8.00;;;5.70;99.90;;;;;;4962063;29;20451;-52
2021/01/23 07:12:45;;;;;;;8.30;6.47;;;5.70;99.90;;;;;;4962073;29;20451;-47
2021/01/23 07:15:14;;;;;;;16.13;9.10;;;5.70;99.90;;;;;;4962061;29;21062;-53
2021/01/23 07:17:41;;;;;;;18.23;9.00;;;5.70;99.90;;;;;;4962332;29;20500;-49
2021/01/23 07:20:10;;;;;;;15.60;7.30;;;5.70;99.90;;;;;;4961499;29;20448;-47
2021/01/23 07:22:37;;;;;;;14.20;8.10;;;5.70;99.90;;;;;;4961646;29;20546;-53
2021/01/23 07:25:05;;;;;;;14.27;8.37;;;5.70;99.90;;;;;;4961855;28;20490;-54
2021/01/23 07:27:34;;;;;;;16.50;8.20;;;5.70;99.90;;;;;;4961488;29;20860;-51
2021/01/23 07:30:00;;;;;;;13.27;7.27;;;5.70;99.90;;;;;;4960951;29;20444;-52
2021/01/23 07:32:36;;;;;;;18.00;9.57;;;5.70;99.90;;;;;;4960896;29;20554;-56
2021/01/23 07:35:03;;;;;;;12.23;5.97;;;5.60;99.90;;;;;;4962172;29;20508;-47
2021/01/23 07:37:45;;;;;;;9.93;7.30;;;5.60;99.90;;;;;;4961993;29;20543;-51
2021/01/23 07:40:13;;;;;;;13.30;7.50;;;5.60;99.90;;;;;;4962063;29;20502;-46
2021/01/23 07:42:41;;;;;;;16.57;6.70;;;5.50;99.90;;;;;;4961640;29;20459;-52
2021/01/23 07:45:09;;;;;;;13.70;7.33;;;5.50;99.90;;;;;;4961706;29;20535;-46
2021/01/23 07:47:37;;;;;;;11.50;6.43;;;5.50;99.90;;;;;;4961968;29;21011;-49
2021/01/23 07:50:05;;;;;;;15.17;7.63;;;5.40;99.90;;;;;;4961871;29;20436;-47
2021/01/23 07:52:32;;;;;;;9.10;6.27;;;5.40;99.90;;;;;;4961743;29;20452;-52
2021/01/23 07:57:28;;;;;;;19.17;8.50;;;5.40;99.90;;;;;;5186777;23;20500;-47
2021/01/23 07:59:55;;;;;;;12.20;6.70;;;5.30;99.90;;;;;;4962166;29;20538;-48
2021/01/23 08:02:22;;;;;;;9.40;7.83;;;5.30;99.90;;;;;;4961374;29;20480;-49
2021/01/23 08:04:50;;;;;;;12.77;6.50;;;5.20;99.90;;;;;;4961957;29;20563;-54
2021/01/23 08:07:17;;;;;;;9.13;7.27;;;5.20;99.90;;;;;;4961623;28;20907;-50
2021/01/23 08:09:44;;;;;;;16.87;7.13;;;5.10;99.90;;;;;;4961972;29;20503;-50
2021/01/23 08:12:17;;;;;;;15.93;7.87;;;5.10;99.90;;;;;;4962400;29;20516;-47
2021/01/23 08:14:53;;;;;;;14.30;10.60;;;5.10;99.90;;;;;;4961672;29;20519;-48
2021/01/23 08:17:20;;;;;;;13.57;7.37;;;5.10;99.90;;;;;;4962617;29;20744;-51
2021/01/23 08:19:51;;;;;;;17.03;6.80;;;5.00;99.90;;;;;;4961577;29;20543;-46
2021/01/23 08:22:17;;;;;;;14.70;7.43;;;5.00;99.90;;;;;;4961048;29;20468;-52
2021/01/23 08:24:44;;;;;;;9.27;6.23;;;5.00;99.90;;;;;;4961569;29;20543;-51
2021/01/23 08:27:17;;;;;;;17.63;7.10;;;4.90;99.90;;;;;;4961504;29;20511;-48
2021/01/23 08:29:48;;;;;;;15.83;7.07;;;4.90;99.90;;;;;;4961829;29;20931;-52
2021/01/23 08:32:15;;;;;;;15.30;8.07;;;4.90;99.90;;;;;;4961933;29;20490;-50
2021/01/23 08:34:43;;;;;;;11.30;6.67;;;4.90;99.90;;;;;;4961510;29;20465;-51
2021/01/23 08:37:10;;;;;;;13.03;8.10;;;4.80;99.90;;;;;;4961124;29;20458;-49
2021/01/23 08:39:44;;;;;;;21.93;8.60;;;4.80;99.90;;;;;;4961286;29;20523;-51
2021/01/23 08:42:11;;;;;;;15.67;7.70;;;4.80;99.90;;;;;;4961656;29;20476;-50
2021/01/23 08:44:38;;;;;;;17.33;8.53;;;4.70;99.90;;;;;;4962213;29;21085;-49
2021/01/23 08:47:05;;;;;;;12.70;7.90;;;4.70;99.90;;;;;;4960729;29;20600;-53
2021/01/23 08:49:32;;;;;;;12.93;7.50;;;4.70;99.90;;;;;;4961400;29;20479;-53
2021/01/23 08:51:59;;;;;;;12.07;7.10;;;4.60;99.90;;;;;;4967985;29;20479;-51
2021/01/23 08:54:26;;;;;;;14.90;8.10;;;4.60;99.90;;;;;;4969637;29;20547;-53
2021/01/23 08:56:52;;;;;;;14.20;7.23;;;4.50;99.90;;;;;;4969209;29;21018;-55
2021/01/23 08:59:19;;;;;;;11.67;6.90;;;4.50;99.90;;;;;;4963506;29;20494;-54
2021/01/23 09:01:45;;;;;;;9.43;6.20;;;4.50;99.90;;;;;;4975836;29;20443;-54
2021/01/23 09:04:12;;;;;;;13.00;6.00;;;4.50;99.90;;;;;;4976146;29;20447;-55
2021/01/23 09:06:40;;;;;;;8.97;6.30;;;4.40;99.90;;;;;;4972052;29;20455;-52
2021/01/23 09:09:07;;;;;;;11.80;6.97;;;4.30;99.90;;;;;;5077610;23;20496;-54
2021/01/23 09:11:36;;;;;;;15.87;6.83;;;4.30;99.90;;;;;;4953787;29;20487;-49
2021/01/23 09:14:04;;;;;;;12.20;6.30;;;4.30;99.90;;;;;;4947315;29;20456;-49
2021/01/23 09:16:31;;;;;;;10.90;6.40;;;4.30;99.90;;;;;;4947394;29;20461;-57
2021/01/23 09:18:58;;;;;;;14.60;6.60;;;4.20;99.90;;;;;;4951250;29;20528;-55
2021/01/23 09:21:24;;;;;;;14.27;9.10;;;4.10;99.90;;;;;;4952809;29;20471;-56
2021/01/23 09:23:51;;;;;;;16.77;7.40;;;4.10;99.90;;;;;;4951996;29;20448;-54
2021/01/23 09:26:18;;;;;;;17.87;8.43;;;4.00;99.90;;;;;;4972266;29;20486;-53
2021/01/23 09:28:45;;;;;;;11.20;7.00;;;4.00;99.90;;;;;;4972164;29;20911;-56
2021/01/23 09:31:11;;;;;;;11.17;7.47;;;3.90;99.90;;;;;;4971841;29;20490;-56
2021/01/23 09:33:38;;;;;;;13.20;9.00;;;3.80;99.90;;;;;;4972569;29;20447;-54
2021/01/23 09:36:05;;;;;;;14.60;7.60;;;3.80;99.90;;;;;;4972687;29;20476;-53
2021/01/23 09:38:32;;;;;;;18.30;8.20;;;3.80;99.90;;;;;;4972748;29;20486;-55
2021/01/23 09:40:58;;;;;;;14.53;8.60;;;3.80;99.90;;;;;;4972641;29;20452;-55
2021/01/23 09:43:25;;;;;;;21.07;9.90;;;3.70;99.90;;;;;;4961205;29;20535;-53
2021/01/23 09:45:52;;;;;;;17.27;11.57;;;3.70;99.90;;;;;;4954552;29;20501;-53
2021/01/23 09:48:20;;;;;;;16.03;10.17;;;3.60;99.90;;;;;;4960473;29;20444;-54
2021/01/23 09:50:46;;;;;;;21.13;12.13;;;3.70;99.90;;;;;;4973738;29;20787;-57
2021/01/23 09:53:13;;;;;;;22.90;12.73;;;3.70;99.90;;;;;;4962062;29;20464;-54
2021/01/23 09:55:39;;;;;;;21.13;11.30;;;3.70;99.90;;;;;;4955464;29;20459;-53
2021/01/23 09:58:06;;;;;;;26.47;12.33;;;3.60;99.90;;;;;;4956023;29;20468;-54
2021/01/23 10:00:33;;;;;;;25.60;11.90;;;3.60;99.90;;;;;;4965978;29;20476;-55
2021/01/23 10:02:59;;;;;;;19.80;11.37;;;3.70;99.90;;;;;;4973661;29;20531;-54
2021/01/23 10:05:26;;;;;;;22.40;11.70;;;3.70;99.90;;;;;;4974436;29;20420;-53
2021/01/23 10:07:53;;;;;;;23.97;12.80;;;3.60;99.90;;;;;;4973038;29;20456;-56
2021/01/23 10:10:19;;;;;;;20.73;12.57;;;3.60;99.90;;;;;;4963273;29;20549;-55
2021/01/23 10:12:45;;;;;;;25.53;13.70;;;3.60;99.90;;;;;;4954213;29;20512;-54
2021/01/23 10:15:12;;;;;;;19.70;12.60;;;3.60;99.90;;;;;;4953510;29;20963;-56
2021/01/23 10:17:39;;;;;;;23.77;12.77;;;3.60;99.90;;;;;;4955279;29;20453;-56
2021/01/23 10:20:07;;;;;;;23.00;12.80;;;3.70;99.90;;;;;;4959435;29;20503;-53
2021/01/23 10:22:34;;;;;;;18.67;9.97;;;3.70;99.90;;;;;;4971336;29;20468;-56
2021/01/23 10:25:00;;;;;;;29.53;12.70;;;3.70;99.90;;;;;;4962668;29;20503;-56
2021/01/23 10:27:27;;;;;;;21.87;11.37;;;3.70;99.90;;;;;;4971255;29;20448;-50
2021/01/23 10:29:53;;;;;;;16.07;10.20;;;3.70;99.90;;;;;;4954582;29;20445;-56
2021/01/23 10:32:20;;;;;;;19.67;11.63;;;3.70;99.90;;;;;;4951466;29;20639;-54
2021/01/23 10:34:47;;;;;;;14.03;8.93;;;3.80;99.90;;;;;;4952074;29;20958;-55
2021/01/23 10:37:13;;;;;;;14.27;8.50;;;3.80;99.90;;;;;;4951122;29;20488;-53
2021/01/23 10:39:40;;;;;;;12.53;7.30;;;3.90;99.90;;;;;;4961926;29;20476;-56
2021/01/23 10:42:06;;;;;;;15.90;9.43;;;3.90;99.90;;;;;;4951923;29;20453;-56
2021/01/23 10:44:38;;;;;;;17.53;8.60;;;3.90;99.90;;;;;;4951907;29;20449;-56
2021/01/23 10:47:04;;;;;;;14.00;8.73;;;3.90;99.90;;;;;;4951980;29;20777;-55
2021/01/23 10:49:31;;;;;;;14.20;7.10;;;4.00;99.90;;;;;;4951227;29;20453;-55
2021/01/23 10:51:59;;;;;;;14.50;7.47;;;4.10;99.90;;;;;;4951613;29;20484;-56
2021/01/23 10:54:25;;;;;;;11.83;8.10;;;4.10;99.90;;;;;;4964301;29;20522;-55
2021/01/23 10:56:52;;;;;;;12.27;8.93;;;3.90;99.90;;;;;;4971675;29;20494;-56
2021/01/23 10:59:18;;;;;;;12.50;7.30;;;4.10;99.90;;;;;;4959223;29;20527;-56
2021/01/23 11:01:44;;;;;;;13.00;7.10;;;4.00;99.90;;;;;;4952110;29;20540;-56
2021/01/23 11:04:11;;;;;;;12.77;7.63;;;4.00;99.90;;;;;;4973422;29;20471;-56
2021/01/23 11:06:37;;;;;;;13.63;6.30;;;3.90;99.90;;;;;;4979724;29;20450;-53
2021/01/23 11:09:05;;;;;;;15.87;7.80;;;3.80;99.90;;;;;;4978986;29;20462;-53
2021/01/23 11:11:32;;;;;;;8.90;5.53;;;3.80;99.90;;;;;;4979156;29;20838;-56
2021/01/23 11:13:59;;;;;;;9.00;5.90;;;3.80;99.90;;;;;;4978395;29;20515;-56
2021/01/23 11:16:25;;;;;;;8.50;5.17;;;3.90;99.90;;;;;;4970801;29;20452;-55
2021/01/23 11:18:55;;;;;;;7.90;5.10;;;3.90;99.90;;;;;;4978297;29;20506;-56
2021/01/23 11:21:21;;;;;;;9.80;4.90;;;3.90;99.90;;;;;;4978388;28;20440;-56
2021/01/23 11:23:47;;;;;;;9.43;4.80;;;3.80;99.90;;;;;;4979170;29;20444;-51
2021/01/23 11:26:15;;;;;;;8.10;4.70;;;3.90;99.90;;;;;;4977268;28;20444;-56
2021/01/23 11:28:41;;;;;;;10.17;4.77;;;3.90;99.90;;;;;;4978649;29;20443;-55
2021/01/23 11:31:08;;;;;;;7.37;4.30;;;3.80;99.90;;;;;;4978202;29;20452;-53
2021/01/23 11:33:35;;;;;;;7.87;4.03;;;3.80;99.90;;;;;;4978459;29;20446;-56
2021/01/23 11:36:01;;;;;;;5.10;3.73;;;3.80;99.90;;;;;;4978356;29;20462;-54
2021/01/23 11:38:28;;;;;;;9.13;4.17;;;3.80;99.90;;;;;;4977915;29;20463;-54
2021/01/23 11:40:54;;;;;;;6.30;3.80;;;3.90;99.90;;;;;;4976575;28;20459;-51
2021/01/23 11:43:21;;;;;;;7.23;3.23;;;3.80;99.90;;;;;;4962583;29;20461;-53
2021/01/23 11:45:48;;;;;;;8.10;3.07;;;3.80;99.90;;;;;;4964342;29;20472;-56
2021/01/23 11:48:14;;;;;;;4.60;3.30;;;3.90;99.90;;;;;;4969705;29;20459;-56
2021/01/23 11:50:41;;;;;;;7.20;4.80;;;3.90;99.90;;;;;;4969787;29;20534;-57
2021/01/23 11:53:07;;;;;;;8.60;4.40;;;4.00;99.90;;;;;;4969136;29;20458;-46
2021/01/23 11:55:34;;;;;;;8.63;3.97;;;4.00;99.90;;;;;;4968046;29;20452;-48
2021/01/23 11:58:01;;;;;;;7.17;4.47;;;4.00;99.90;;;;;;4964360;29;20484;-51
2021/01/23 12:00:31;;;;;;;8.23;3.87;;;4.10;99.90;;;;;;4967083;29;20487;-49
2021/01/23 12:02:57;;;;;;;6.00;4.40;;;4.10;99.90;;;;;;4966093;29;20451;-53
2021/01/23 12:05:24;;;;;;;6.97;4.10;;;4.20;99.90;;;;;;4965834;29;20487;-50
2021/01/23 12:07:50;;;;;;;5.40;3.50;;;4.20;99.90;;;;;;4965850;29;20487;-52
2021/01/23 12:10:17;;;;;;;12.50;3.93;;;4.30;99.90;;;;;;4963810;29;20492;-50
2021/01/23 12:12:44;;;;;;;10.83;4.83;;;4.30;99.90;;;;;;4962431;29;20455;-52
2021/01/23 12:15:19;;;;;;;10.40;4.60;;;4.40;99.90;;;;;;4963886;29;20973;-52
2021/01/23 12:17:46;;;;;;;10.60;4.00;;;4.40;99.90;;;;;;4971658;28;20454;-52
2021/01/23 12:20:13;;;;;;;13.83;4.43;;;4.50;99.90;;;;;;4965777;29;20512;-52
2021/01/23 12:22:40;;;;;;;6.17;4.20;;;4.50;99.90;;;;;;4966798;29;20824;-51
2021/01/23 12:25:09;;;;;;;9.20;5.50;;;4.60;99.90;;;;;;4959298;29;20507;-49
2021/01/23 12:27:35;;;;;;;6.20;4.20;;;4.70;99.90;;;;;;4961205;29;20455;-46
2021/01/23 12:30:01;;;;;;;10.50;4.97;;;4.70;99.90;;;;;;4965527;29;20846;-49
2021/01/23 12:32:28;;;;;;;8.70;6.10;;;4.70;99.90;;;;;;4965522;29;20468;-48
2021/01/23 12:34:55;;;;;;;11.20;5.33;;;4.70;99.90;;;;;;4957897;29;20445;-51
2021/01/23 12:37:22;;;;;;;8.83;5.80;;;4.80;99.90;;;;;;4970458;28;20428;-51
2021/01/23 12:39:48;;;;;;;12.47;6.60;;;4.80;99.90;;;;;;4969174;29;20480;-52
2021/01/23 12:42:18;;;;;;;13.60;6.93;;;4.80;99.90;;;;;;4961928;28;20467;-49
2021/01/23 12:44:44;;;;;;;13.67;5.60;;;4.80;99.90;;;;;;4970606;29;20448;-56
2021/01/23 12:47:11;;;;;;;14.57;5.73;;;4.80;99.90;;;;;;4966871;29;20463;-53
2021/01/23 12:49:37;;;;;;;10.63;5.83;;;4.80;99.90;;;;;;4967177;28;20451;-49
2021/01/23 12:52:05;;;;;;;9.07;5.47;;;4.80;99.90;;;;;;4961710;28;20460;-53
2021/01/23 12:54:31;;;;;;;14.30;5.53;;;4.80;99.90;;;;;;4975567;29;20439;-48